sensor_id;sensor_type;location;lat;lon;timestamp;pressure;altitude;pressure_sealevel;temperature;humidity
33795;BME280;51430;52.242;21.118;2023-03-01T00:03:10;101666.49;;;-1.85;81.18
33795;BME280;51430;52.242;21.118;2023-03-01T00:06:45;101669.42;;;-1.89;81.53
33795;BME280;51430;52.242;21.118;2023-03-01T00:10:42;101661.20;;;-1.86;81.73
33795;BME280;51430;52.242;21.118;2023-03-01T00:14:41;101661.31;;;-1.73;82.41
33795;BME280;51430;52.242;21.118;2023-03-01T00:18:38;101659.21;;;-1.61;82.29
33795;BME280;51430;52.242;21.118;2023-03-01T00:22:36;101654.57;;;-1.56;82.35
33795;BME280;51430;52.242;21.118;2023-03-01T00:26:55;101644.42;;;-1.45;82.46
33795;BME280;51430;52.242;21.118;2023-03-01T00:34:41;101639.14;;;-1.23;83.04
33795;BME280;51430;52.242;21.118;2023-03-01T00:38:44;101641.15;;;-1.18;82.76
33795;BME280;51430;52.242;21.118;2023-03-01T00:42:40;101649.34;;;-1.14;82.63
33795;BME280;51430;52.242;21.118;2023-03-01T00:46:35;101650.87;;;-1.11;82.45
33795;BME280;51430;52.242;21.118;2023-03-01T00:50:30;101648.79;;;-1.08;82.51
33795;BME280;51430;52.242;21.118;2023-03-01T00:54:29;101642.02;;;-0.97;82.31
33795;BME280;51430;52.242;21.118;2023-03-01T00:58:29;101645.73;;;-0.89;82.08
33795;BME280;51430;52.242;21.118;2023-03-01T01:02:45;101641.08;;;-0.85;82.10
33795;BME280;51430;52.242;21.118;2023-03-01T01:06:17;101631.00;;;-0.87;81.84
33795;BME280;51430;52.242;21.118;2023-03-01T01:15:43;101621.11;;;-0.92;82.12
33795;BME280;51430;52.242;21.118;2023-03-01T01:19:41;101619.58;;;-0.93;81.92
33795;BME280;51430;52.242;21.118;2023-03-01T01:23:38;101612.61;;;-0.99;81.99
33795;BME280;51430;52.242;21.118;2023-03-01T01:27:34;101607.87;;;-1.05;81.48
33795;BME280;51430;52.242;21.118;2023-03-01T01:37:07;101601.84;;;-1.21;81.49
33795;BME280;51430;52.242;21.118;2023-03-01T01:41:06;101603.13;;;-1.32;81.56
33795;BME280;51430;52.242;21.118;2023-03-01T01:45:28;101603.73;;;-1.45;81.68
33795;BME280;51430;52.242;21.118;2023-03-01T01:49:35;101597.83;;;-1.58;81.85
33795;BME280;51430;52.242;21.118;2023-03-01T01:53:58;101594.59;;;-1.60;82.51
33795;BME280;51430;52.242;21.118;2023-03-01T01:57:58;101594.24;;;-1.58;83.21
33795;BME280;51430;52.242;21.118;2023-03-01T02:02:00;101593.39;;;-1.57;83.04
33795;BME280;51430;52.242;21.118;2023-03-01T02:06:04;101587.88;;;-1.52;83.28
33795;BME280;51430;52.242;21.118;2023-03-01T02:10:06;101575.37;;;-1.47;83.55
33795;BME280;51430;52.242;21.118;2023-03-01T02:14:07;101580.98;;;-1.21;83.42
33795;BME280;51430;52.242;21.118;2023-03-01T02:17:43;101581.84;;;-1.22;83.15
33795;BME280;51430;52.242;21.118;2023-03-01T02:22:06;101576.80;;;-1.13;82.89
33795;BME280;51430;52.242;21.118;2023-03-01T02:26:34;101571.15;;;-1.12;82.53
33795;BME280;51430;52.242;21.118;2023-03-01T02:30:30;101570.00;;;-0.98;81.86
33795;BME280;51430;52.242;21.118;2023-03-01T02:34:30;101565.55;;;-0.99;82.07
33795;BME280;51430;52.242;21.118;2023-03-01T02:38:27;101554.57;;;-0.94;81.65
33795;BME280;51430;52.242;21.118;2023-03-01T02:42:30;101554.66;;;-1.04;81.47
33795;BME280;51430;52.242;21.118;2023-03-01T02:46:43;101553.40;;;-0.97;81.61
33795;BME280;51430;52.242;21.118;2023-03-01T02:50:44;101563.15;;;-0.97;81.34
33795;BME280;51430;52.242;21.118;2023-03-01T02:58:59;101547.44;;;-0.83;80.63
33795;BME280;51430;52.242;21.118;2023-03-01T03:01:47;101534.20;;;-0.93;80.73
33795;BME280;51430;52.242;21.118;2023-03-01T03:04:34;101539.36;;;-0.81;80.69
33795;BME280;51430;52.242;21.118;2023-03-01T03:07:20;101539.42;;;-0.70;80.34
33795;BME280;51430;52.242;21.118;2023-03-01T03:10:13;101534.44;;;-0.68;79.66
33795;BME280;51430;52.242;21.118;2023-03-01T03:13:03;101530.45;;;-0.63;79.81
33795;BME280;51430;52.242;21.118;2023-03-01T03:15:59;101523.37;;;-0.58;79.46
33795;BME280;51430;52.242;21.118;2023-03-01T03:18:46;101516.29;;;-0.68;79.54
33795;BME280;51430;52.242;21.118;2023-03-01T03:21:35;101514.66;;;-0.61;79.59
33795;BME280;51430;52.242;21.118;2023-03-01T03:24:21;101516.98;;;-0.54;79.15
33795;BME280;51430;52.242;21.118;2023-03-01T03:27:08;101512.17;;;-0.53;78.91
33795;BME280;51430;52.242;21.118;2023-03-01T03:30:09;101507.92;;;-0.55;78.80
33795;BME280;51430;52.242;21.118;2023-03-01T03:34:04;101508.33;;;-0.61;79.22
33795;BME280;51430;52.242;21.118;2023-03-01T03:37:22;101511.65;;;-0.66;79.19
33795;BME280;51430;52.242;21.118;2023-03-01T03:47:39;101522.36;;;-0.90;80.11
33795;BME280;51430;52.242;21.118;2023-03-01T04:01:41;101504.13;;;-0.54;79.15
33795;BME280;51430;52.242;21.118;2023-03-01T04:04:40;101486.78;;;-0.50;78.19
33795;BME280;51430;52.242;21.118;2023-03-01T04:08:36;101482.13;;;-0.60;78.47
33795;BME280;51430;52.242;21.118;2023-03-01T04:12:36;101480.08;;;-0.60;78.38
33795;BME280;51430;52.242;21.118;2023-03-01T04:16:13;101484.74;;;-0.64;78.56
33795;BME280;51430;52.242;21.118;2023-03-01T04:19:00;101496.81;;;-0.71;78.80
33795;BME280;51430;52.242;21.118;2023-03-01T04:22:06;101493.83;;;-0.64;78.45
33795;BME280;51430;52.242;21.118;2023-03-01T04:26:04;101489.77;;;-0.68;78.66
33795;BME280;51430;52.242;21.118;2023-03-01T04:30:19;101484.77;;;-0.65;78.67
33795;BME280;51430;52.242;21.118;2023-03-01T04:33:44;101475.63;;;-0.74;78.87
33795;BME280;51430;52.242;21.118;2023-03-01T04:38:00;101472.92;;;-0.77;79.06
33795;BME280;51430;52.242;21.118;2023-03-01T04:41:23;101469.10;;;-0.72;79.13
33795;BME280;51430;52.242;21.118;2023-03-01T04:45:19;101461.38;;;-0.71;79.24
33795;BME280;51430;52.242;21.118;2023-03-01T04:49:20;101458.60;;;-0.67;78.99
33795;BME280;51430;52.242;21.118;2023-03-01T04:53:12;101455.34;;;-0.67;78.74
33795;BME280;51430;52.242;21.118;2023-03-01T04:56:31;101455.30;;;-0.63;78.56
33795;BME280;51430;52.242;21.118;2023-03-01T04:59:18;101457.08;;;-0.69;78.58
33795;BME280;51430;52.242;21.118;2023-03-01T05:02:09;101458.77;;;-0.67;78.61
33795;BME280;51430;52.242;21.118;2023-03-01T05:04:56;101455.44;;;-0.61;78.57
33795;BME280;51430;52.242;21.118;2023-03-01T05:07:43;101454.14;;;-0.54;77.97
33795;BME280;51430;52.242;21.118;2023-03-01T05:10:32;101459.08;;;-0.52;78.12
33795;BME280;51430;52.242;21.118;2023-03-01T05:13:20;101467.10;;;-0.50;77.68
33795;BME280;51430;52.242;21.118;2023-03-01T05:16:08;101471.89;;;-0.49;77.82
33795;BME280;51430;52.242;21.118;2023-03-01T05:18:58;101472.77;;;-0.51;77.87
33795;BME280;51430;52.242;21.118;2023-03-01T05:21:45;101471.39;;;-0.50;78.03
33795;BME280;51430;52.242;21.118;2023-03-01T05:24:50;101470.52;;;-0.49;77.83
33795;BME280;51430;52.242;21.118;2023-03-01T05:27:36;101471.88;;;-0.49;77.95
33795;BME280;51430;52.242;21.118;2023-03-01T05:30:23;101481.71;;;-0.41;77.59
33795;BME280;51430;52.242;21.118;2023-03-01T05:33:10;101488.44;;;-0.44;77.60
33795;BME280;51430;52.242;21.118;2023-03-01T05:36:00;101494.45;;;-0.47;77.54
33795;BME280;51430;52.242;21.118;2023-03-01T05:38:47;101499.25;;;-0.47;77.69
33795;BME280;51430;52.242;21.118;2023-03-01T05:41:33;101501.29;;;-0.45;77.72
33795;BME280;51430;52.242;21.118;2023-03-01T05:44:21;101498.13;;;-0.39;77.82
33795;BME280;51430;52.242;21.118;2023-03-01T05:47:08;101498.14;;;-0.39;77.78
33795;BME280;51430;52.242;21.118;2023-03-01T05:49:55;101504.39;;;-0.33;77.56
33795;BME280;51430;52.242;21.118;2023-03-01T05:52:50;101504.44;;;-0.23;77.36
33795;BME280;51430;52.242;21.118;2023-03-01T05:55:37;101507.31;;;-0.20;77.16
33795;BME280;51430;52.242;21.118;2023-03-01T05:58:25;101508.57;;;-0.12;77.04
33795;BME280;51430;52.242;21.118;2023-03-01T06:01:13;101506.04;;;-0.03;76.58
33795;BME280;51430;52.242;21.118;2023-03-01T06:04:00;101503.13;;;0.09;76.23
33795;BME280;51430;52.242;21.118;2023-03-01T06:06:48;101502.61;;;0.10;76.07
33795;BME280;51430;52.242;21.118;2023-03-01T06:09:52;101498.53;;;0.19;76.16
33795;BME280;51430;52.242;21.118;2023-03-01T06:12:40;101499.18;;;0.21;76.12
33795;BME280;51430;52.242;21.118;2023-03-01T06:15:30;101495.81;;;0.39;75.51
33795;BME280;51430;52.242;21.118;2023-03-01T06:18:17;101497.73;;;0.58;75.29
33795;BME280;51430;52.242;21.118;2023-03-01T06:21:06;101492.92;;;0.78;74.37
33795;BME280;51430;52.242;21.118;2023-03-01T06:23:55;101494.13;;;0.89;73.65
33795;BME280;51430;52.242;21.118;2023-03-01T06:26:43;101494.96;;;0.99;73.40
33795;BME280;51430;52.242;21.118;2023-03-01T06:29:31;101498.59;;;1.33;73.50
33795;BME280;51430;52.242;21.118;2023-03-01T06:32:19;101499.48;;;1.65;71.85
33795;BME280;51430;52.242;21.118;2023-03-01T06:35:06;101502.95;;;1.80;70.89
33795;BME280;51430;52.242;21.118;2023-03-01T06:37:53;101502.14;;;1.93;69.83
33795;BME280;51430;52.242;21.118;2023-03-01T06:40:41;101500.61;;;2.00;69.57
33795;BME280;51430;52.242;21.118;2023-03-01T06:43:28;101499.63;;;2.28;69.22
33795;BME280;51430;52.242;21.118;2023-03-01T06:46:14;101498.41;;;2.43;67.99
33795;BME280;51430;52.242;21.118;2023-03-01T06:49:02;101498.04;;;2.65;67.46
33795;BME280;51430;52.242;21.118;2023-03-01T06:56:16;101500.39;;;3.38;66.30
33795;BME280;51430;52.242;21.118;2023-03-01T06:59:03;101504.66;;;3.52;64.07
33795;BME280;51430;52.242;21.118;2023-03-01T07:01:50;101505.33;;;3.46;63.72
33795;BME280;51430;52.242;21.118;2023-03-01T07:04:37;101510.17;;;3.57;63.86
33795;BME280;51430;52.242;21.118;2023-03-01T07:07:23;101509.58;;;3.78;63.33
33795;BME280;51430;52.242;21.118;2023-03-01T07:14:33;101504.67;;;3.45;63.36
33795;BME280;51430;52.242;21.118;2023-03-01T07:17:20;101507.16;;;3.54;63.53
33795;BME280;51430;52.242;21.118;2023-03-01T07:24:29;101493.09;;;4.73;61.19
33795;BME280;51430;52.242;21.118;2023-03-01T07:30:11;101491.44;;;4.61;59.69
33795;BME280;51430;52.242;21.118;2023-03-01T07:33:28;101487.68;;;4.44;60.45
33795;BME280;51430;52.242;21.118;2023-03-01T07:37:26;101487.41;;;5.17;59.78
33795;BME280;51430;52.242;21.118;2023-03-01T07:41:22;101489.15;;;5.26;58.77
33795;BME280;51430;52.242;21.118;2023-03-01T07:45:30;101491.84;;;5.62;57.47
33795;BME280;51430;52.242;21.118;2023-03-01T07:48:18;101488.66;;;6.26;57.09
33795;BME280;51430;52.242;21.118;2023-03-01T07:55:01;101495.23;;;7.48;54.14
33795;BME280;51430;52.242;21.118;2023-03-01T07:57:49;101493.35;;;8.08;52.74
33795;BME280;51430;52.242;21.118;2023-03-01T08:01:03;101495.66;;;8.33;51.62
33795;BME280;51430;52.242;21.118;2023-03-01T08:04:39;101494.52;;;8.20;51.52
33795;BME280;51430;52.242;21.118;2023-03-01T08:18:57;101506.85;;;9.07;50.09
33795;BME280;51430;52.242;21.118;2023-03-01T09:00:50;101504.92;;;11.22;45.91
33795;BME280;51430;52.242;21.118;2023-03-01T09:25:08;101490.73;;;12.37;44.36
33795;BME280;51430;52.242;21.118;2023-03-01T09:27:57;101486.23;;;11.96;44.43
33795;BME280;51430;52.242;21.118;2023-03-01T09:30:47;101482.79;;;12.11;44.92
33795;BME280;51430;52.242;21.118;2023-03-01T09:33:34;101478.84;;;12.18;44.05
33795;BME280;51430;52.242;21.118;2023-03-01T09:41:31;101475.91;;;12.62;43.18
33795;BME280;51430;52.242;21.118;2023-03-01T09:55:13;101471.82;;;14.19;40.71
33795;BME280;51430;52.242;21.118;2023-03-01T10:08:46;101455.56;;;15.72;38.12
33795;BME280;51430;52.242;21.118;2023-03-01T10:11:39;101448.73;;;15.36;37.74
33795;BME280;51430;52.242;21.118;2023-03-01T10:18:02;101434.33;;;14.38;40.99
33795;BME280;51430;52.242;21.118;2023-03-01T10:22:24;101438.30;;;15.46;38.11
33795;BME280;51430;52.242;21.118;2023-03-01T10:26:32;101437.36;;;16.48;36.60
33795;BME280;51430;52.242;21.118;2023-03-01T10:30:57;101437.02;;;15.37;37.26
33795;BME280;51430;52.242;21.118;2023-03-01T10:34:21;101436.64;;;15.20;37.92
33795;BME280;51430;52.242;21.118;2023-03-01T10:38:08;101432.01;;;14.73;38.85
33795;BME280;51430;52.242;21.118;2023-03-01T10:46:37;101434.04;;;15.40;37.39
33795;BME280;51430;52.242;21.118;2023-03-01T10:49:24;101422.59;;;15.67;37.64
33795;BME280;51430;52.242;21.118;2023-03-01T10:52:21;101424.23;;;16.24;36.62
33795;BME280;51430;52.242;21.118;2023-03-01T11:03:38;101422.42;;;14.29;39.23
33795;BME280;51430;52.242;21.118;2023-03-01T11:07:11;101417.09;;;15.23;39.22
33795;BME280;51430;52.242;21.118;2023-03-01T11:11:07;101419.36;;;16.79;36.02
33795;BME280;51430;52.242;21.118;2023-03-01T11:25:00;101409.72;;;17.78;34.34
33795;BME280;51430;52.242;21.118;2023-03-01T11:27:59;101402.90;;;16.70;35.22
33795;BME280;51430;52.242;21.118;2023-03-01T11:34:07;101397.24;;;16.50;36.22
33795;BME280;51430;52.242;21.118;2023-03-01T11:36:59;101396.09;;;17.78;34.75
33795;BME280;51430;52.242;21.118;2023-03-01T11:39:53;101398.08;;;18.57;33.50
33795;BME280;51430;52.242;21.118;2023-03-01T11:42:52;101399.45;;;18.57;33.12
33795;BME280;51430;52.242;21.118;2023-03-01T11:55:15;101392.91;;;18.23;34.62
33795;BME280;51430;52.242;21.118;2023-03-01T12:01:03;101395.70;;;19.92;31.77
33795;BME280;51430;52.242;21.118;2023-03-01T12:06:56;101397.56;;;17.12;35.01
33795;BME280;51430;52.242;21.118;2023-03-01T12:10:23;101393.86;;;17.00;35.92
33795;BME280;51430;52.242;21.118;2023-03-01T12:16:16;101395.51;;;18.54;34.30
33795;BME280;51430;52.242;21.118;2023-03-01T12:29:17;101384.48;;;19.37;32.57
33795;BME280;51430;52.242;21.118;2023-03-01T12:41:28;101377.02;;;20.60;31.89
33795;BME280;51430;52.242;21.118;2023-03-01T12:47:56;101375.19;;;21.53;31.06
33795;BME280;51430;52.242;21.118;2023-03-01T12:50:50;101376.70;;;22.34;30.14
33795;BME280;51430;52.242;21.118;2023-03-01T12:53:41;101367.26;;;22.05;30.56
33795;BME280;51430;52.242;21.118;2023-03-01T12:56:30;101366.11;;;21.84;30.70
33795;BME280;51430;52.242;21.118;2023-03-01T12:59:28;101363.29;;;19.60;33.33
33795;BME280;51430;52.242;21.118;2023-03-01T13:02:24;101357.13;;;17.94;35.70
33795;BME280;51430;52.242;21.118;2023-03-01T13:08:59;101350.14;;;18.35;36.10
33795;BME280;51430;52.242;21.118;2023-03-01T13:11:55;101354.80;;;18.68;34.99
33795;BME280;51430;52.242;21.118;2023-03-01T13:14:44;101360.00;;;18.85;35.22
33795;BME280;51430;52.242;21.118;2023-03-01T13:21:31;101348.45;;;16.79;38.33
33795;BME280;51430;52.242;21.118;2023-03-01T13:24:32;101346.27;;;16.59;38.79
33795;BME280;51430;52.242;21.118;2023-03-01T13:27:35;101341.20;;;17.27;38.16
33795;BME280;51430;52.242;21.118;2023-03-01T13:39:39;101332.52;;;17.67;37.21
33795;BME280;51430;52.242;21.118;2023-03-01T13:42:37;101328.98;;;18.32;36.59
33795;BME280;51430;52.242;21.118;2023-03-01T13:48:34;101334.52;;;19.06;34.90
33795;BME280;51430;52.242;21.118;2023-03-01T13:51:34;101330.36;;;19.29;34.90
33795;BME280;51430;52.242;21.118;2023-03-01T13:54:32;101328.23;;;19.31;34.69
33795;BME280;51430;52.242;21.118;2023-03-01T13:57:24;101322.14;;;17.29;37.45
33795;BME280;51430;52.242;21.118;2023-03-01T14:03:20;101314.15;;;14.81;42.06
33795;BME280;51430;52.242;21.118;2023-03-01T14:09:27;101315.79;;;18.80;36.12
33795;BME280;51430;52.242;21.118;2023-03-01T14:15:33;101323.97;;;20.34;33.34
33795;BME280;51430;52.242;21.118;2023-03-01T14:18:26;101319.30;;;21.01;32.39
33795;BME280;51430;52.242;21.118;2023-03-01T14:21:15;101324.13;;;21.48;31.84
33795;BME280;51430;52.242;21.118;2023-03-01T14:24:01;101316.88;;;21.84;31.00
33795;BME280;51430;52.242;21.118;2023-03-01T14:26:49;101312.45;;;21.82;31.29
33795;BME280;51430;52.242;21.118;2023-03-01T14:41:59;101303.52;;;23.41;28.90
33795;BME280;51430;52.242;21.118;2023-03-01T14:45:20;101299.13;;;24.13;27.81
33795;BME280;51430;52.242;21.118;2023-03-01T14:48:56;101293.08;;;23.01;28.86
33795;BME280;51430;52.242;21.118;2023-03-01T14:53:04;101290.36;;;21.81;30.30
33795;BME280;51430;52.242;21.118;2023-03-01T14:56:46;101287.66;;;20.04;32.32
33795;BME280;51430;52.242;21.118;2023-03-01T15:00:51;101280.63;;;18.58;34.53
33795;BME280;51430;52.242;21.118;2023-03-01T15:04:15;101275.80;;;16.82;37.36
33795;BME280;51430;52.242;21.118;2023-03-01T15:07:57;101273.44;;;15.46;39.97
33795;BME280;51430;52.242;21.118;2023-03-01T15:15:53;101269.05;;;12.66;46.23
33795;BME280;51430;52.242;21.118;2023-03-01T15:19:04;101262.40;;;11.93;48.20
33795;BME280;51430;52.242;21.118;2023-03-01T15:22:43;101259.75;;;11.50;49.48
33795;BME280;51430;52.242;21.118;2023-03-01T15:26:28;101248.80;;;10.74;52.33
33795;BME280;51430;52.242;21.118;2023-03-01T15:55:33;101240.55;;;9.77;56.53
33795;BME280;51430;52.242;21.118;2023-03-01T15:58:30;101233.70;;;9.36;57.58
33795;BME280;51430;52.242;21.118;2023-03-01T16:13:16;101229.23;;;8.83;60.22
33795;BME280;51430;52.242;21.118;2023-03-01T17:40:44;101259.17;;;6.40;68.02
33795;BME280;51430;52.242;21.118;2023-03-01T17:43:30;101253.95;;;6.09;68.70
33795;BME280;51430;52.242;21.118;2023-03-01T17:46:19;101248.89;;;5.98;68.91
33795;BME280;51430;52.242;21.118;2023-03-01T17:49:05;101247.19;;;5.93;69.29
33795;BME280;51430;52.242;21.118;2023-03-01T17:51:57;101241.70;;;5.88;69.57
33795;BME280;51430;52.242;21.118;2023-03-01T17:55:01;101231.55;;;5.78;70.04
33795;BME280;51430;52.242;21.118;2023-03-01T18:36:34;101222.27;;;5.60;72.36
33795;BME280;51430;52.242;21.118;2023-03-01T18:50:04;101218.66;;;5.51;73.55
33795;BME280;51430;52.242;21.118;2023-03-01T19:18:19;101231.58;;;5.23;75.54
33795;BME280;51430;52.242;21.118;2023-03-01T19:21:50;101235.66;;;5.03;76.36
33795;BME280;51430;52.242;21.118;2023-03-01T19:35:27;101247.52;;;5.00;75.71
33795;BME280;51430;52.242;21.118;2023-03-01T19:38:18;101249.05;;;4.78;75.78
33795;BME280;51430;52.242;21.118;2023-03-01T19:41:32;101250.79;;;4.73;75.90
33795;BME280;51430;52.242;21.118;2023-03-01T19:44:21;101250.88;;;4.66;75.63
33795;BME280;51430;52.242;21.118;2023-03-01T19:47:11;101250.73;;;4.61;75.87
33795;BME280;51430;52.242;21.118;2023-03-01T19:49:58;101249.67;;;4.62;76.11
33795;BME280;51430;52.242;21.118;2023-03-01T19:52:47;101251.89;;;4.53;76.30
33795;BME280;51430;52.242;21.118;2023-03-01T19:55:35;101252.39;;;4.44;76.58
33795;BME280;51430;52.242;21.118;2023-03-01T19:58:40;101252.53;;;4.36;77.03
33795;BME280;51430;52.242;21.118;2023-03-01T20:01:26;101252.30;;;4.23;78.01
33795;BME280;51430;52.242;21.118;2023-03-01T20:04:18;101256.20;;;4.30;78.42
33795;BME280;51430;52.242;21.118;2023-03-01T20:07:09;101260.19;;;4.34;78.67
33795;BME280;51430;52.242;21.118;2023-03-01T20:09:58;101262.56;;;4.35;78.23
33795;BME280;51430;52.242;21.118;2023-03-01T20:12:45;101257.36;;;4.36;77.92
33795;BME280;51430;52.242;21.118;2023-03-01T20:15:32;101263.26;;;4.35;77.80
33795;BME280;51430;52.242;21.118;2023-03-01T20:18:23;101263.70;;;4.27;78.03
33795;BME280;51430;52.242;21.118;2023-03-01T20:21:10;101264.75;;;4.27;78.22
33795;BME280;51430;52.242;21.118;2023-03-01T20:24:11;101266.89;;;4.20;78.48
33795;BME280;51430;52.242;21.118;2023-03-01T20:27:00;101267.02;;;4.16;78.72
33795;BME280;51430;52.242;21.118;2023-03-01T20:29:47;101270.99;;;4.11;78.56
33795;BME280;51430;52.242;21.118;2023-03-01T20:32:34;101274.11;;;4.01;78.01
33795;BME280;51430;52.242;21.118;2023-03-01T20:35:21;101269.96;;;3.90;77.76
33795;BME280;51430;52.242;21.118;2023-03-01T20:38:09;101269.56;;;3.78;78.09
33795;BME280;51430;52.242;21.118;2023-03-01T20:41:01;101269.96;;;3.70;78.80
33795;BME280;51430;52.242;21.118;2023-03-01T20:43:55;101268.70;;;3.72;79.35
33795;BME280;51430;52.242;21.118;2023-03-01T20:46:44;101265.09;;;3.71;79.93
33795;BME280;51430;52.242;21.118;2023-03-01T20:49:31;101263.14;;;3.73;80.46
33795;BME280;51430;52.242;21.118;2023-03-01T20:52:24;101264.16;;;3.68;80.55
33795;BME280;51430;52.242;21.118;2023-03-01T20:55:11;101261.97;;;3.67;81.09
33795;BME280;51430;52.242;21.118;2023-03-01T20:57:58;101262.24;;;3.64;80.69
33795;BME280;51430;52.242;21.118;2023-03-01T21:00:44;101266.49;;;3.61;80.68
33795;BME280;51430;52.242;21.118;2023-03-01T21:05:06;101255.33;;;3.43;80.35
33795;BME280;51430;52.242;21.118;2023-03-01T21:09:08;101258.71;;;3.24;81.05
33795;BME280;51430;52.242;21.118;2023-03-01T21:11:56;101265.14;;;3.11;81.00
33795;BME280;51430;52.242;21.118;2023-03-01T21:14:45;101260.77;;;3.08;80.42
33795;BME280;51430;52.242;21.118;2023-03-01T21:17:33;101257.45;;;3.04;80.33
33795;BME280;51430;52.242;21.118;2023-03-01T21:20:24;101256.63;;;3.03;80.66
33795;BME280;51430;52.242;21.118;2023-03-01T21:23:11;101259.17;;;3.04;81.26
33795;BME280;51430;52.242;21.118;2023-03-01T21:28:54;101246.83;;;2.96;82.70
33795;BME280;51430;52.242;21.118;2023-03-01T21:31:40;101241.98;;;2.97;83.01
33795;BME280;51430;52.242;21.118;2023-03-01T21:34:40;101240.55;;;2.99;83.21
33795;BME280;51430;52.242;21.118;2023-03-01T21:37:27;101238.11;;;3.00;83.61
33795;BME280;51430;52.242;21.118;2023-03-01T21:40:15;101243.20;;;3.02;84.00
33795;BME280;51430;52.242;21.118;2023-03-01T21:43:02;101240.90;;;2.99;83.58
33795;BME280;51430;52.242;21.118;2023-03-01T21:45:49;101238.73;;;2.91;82.81
33795;BME280;51430;52.242;21.118;2023-03-01T21:48:36;101234.29;;;2.84;82.70
33795;BME280;51430;52.242;21.118;2023-03-01T21:51:26;101232.71;;;2.79;82.69
33795;BME280;51430;52.242;21.118;2023-03-01T21:54:17;101234.56;;;2.75;82.75
33795;BME280;51430;52.242;21.118;2023-03-01T21:57:08;101237.54;;;2.68;82.87
33795;BME280;51430;52.242;21.118;2023-03-01T21:59:55;101235.84;;;2.61;82.78
33795;BME280;51430;52.242;21.118;2023-03-01T22:02:44;101237.20;;;2.61;82.75
33795;BME280;51430;52.242;21.118;2023-03-01T22:05:32;101233.83;;;2.59;83.12
33795;BME280;51430;52.242;21.118;2023-03-01T22:08:20;101232.96;;;2.54;83.42
33795;BME280;51430;52.242;21.118;2023-03-01T22:11:06;101230.78;;;2.51;83.72
33795;BME280;51430;52.242;21.118;2023-03-01T22:13:55;101228.90;;;2.51;84.38
33795;BME280;51430;52.242;21.118;2023-03-01T22:16:41;101226.99;;;2.52;85.13
33795;BME280;51430;52.242;21.118;2023-03-01T22:19:30;101223.41;;;2.50;85.11
33795;BME280;51430;52.242;21.118;2023-03-01T22:25:56;101220.77;;;2.41;87.01
33795;BME280;51430;52.242;21.118;2023-03-01T22:28:46;101223.08;;;2.44;88.35
33795;BME280;51430;52.242;21.118;2023-03-01T22:31:34;101223.09;;;2.39;87.48
33795;BME280;51430;52.242;21.118;2023-03-01T22:34:21;101228.02;;;2.28;85.13
33795;BME280;51430;52.242;21.118;2023-03-01T22:37:08;101224.85;;;2.12;84.44
33795;BME280;51430;52.242;21.118;2023-03-01T22:39:57;101224.42;;;2.02;84.29
33795;BME280;51430;52.242;21.118;2023-03-01T22:42:43;101220.74;;;1.92;84.02
33795;BME280;51430;52.242;21.118;2023-03-01T22:45:31;101226.42;;;1.85;83.67
33795;BME280;51430;52.242;21.118;2023-03-01T22:48:18;101229.82;;;1.74;83.45
33795;BME280;51430;52.242;21.118;2023-03-01T22:51:05;101226.68;;;1.62;83.48
33795;BME280;51430;52.242;21.118;2023-03-01T22:53:53;101220.98;;;1.56;83.93
33795;BME280;51430;52.242;21.118;2023-03-01T22:56:40;101219.88;;;1.52;84.38
33795;BME280;51430;52.242;21.118;2023-03-01T22:59:28;101229.98;;;1.47;84.51
33795;BME280;51430;52.242;21.118;2023-03-01T23:02:15;101227.93;;;1.46;84.75
33795;BME280;51430;52.242;21.118;2023-03-01T23:05:03;101225.61;;;1.43;84.28
33795;BME280;51430;52.242;21.118;2023-03-01T23:07:49;101229.64;;;1.39;84.32
33795;BME280;51430;52.242;21.118;2023-03-01T23:10:39;101228.59;;;1.33;84.16
33795;BME280;51430;52.242;21.118;2023-03-01T23:13:26;101226.84;;;1.28;84.45
33795;BME280;51430;52.242;21.118;2023-03-01T23:16:14;101236.17;;;1.25;84.81
33795;BME280;51430;52.242;21.118;2023-03-01T23:19:01;101234.30;;;1.25;85.20
33795;BME280;51430;52.242;21.118;2023-03-01T23:21:50;101231.11;;;1.22;85.20
33795;BME280;51430;52.242;21.118;2023-03-01T23:24:39;101227.91;;;1.19;85.31
33795;BME280;51430;52.242;21.118;2023-03-01T23:27:26;101227.43;;;1.18;85.38
33795;BME280;51430;52.242;21.118;2023-03-01T23:30:17;101224.15;;;1.18;86.53
33795;BME280;51430;52.242;21.118;2023-03-01T23:33:06;101221.55;;;1.20;87.73
33795;BME280;51430;52.242;21.118;2023-03-01T23:35:53;101219.58;;;1.23;89.54
33795;BME280;51430;52.242;21.118;2023-03-01T23:38:40;101220.00;;;1.27;90.17
33795;BME280;51430;52.242;21.118;2023-03-01T23:41:29;101217.75;;;1.27;90.38
33795;BME280;51430;52.242;21.118;2023-03-01T23:44:18;101218.98;;;1.26;90.87
33795;BME280;51430;52.242;21.118;2023-03-01T23:47:06;101219.98;;;1.27;91.26
33795;BME280;51430;52.242;21.118;2023-03-01T23:49:52;101219.89;;;1.31;91.37
33795;BME280;51430;52.242;21.118;2023-03-01T23:52:42;101221.12;;;1.30;91.52
33795;BME280;51430;52.242;21.118;2023-03-01T23:55:29;101221.95;;;1.30;91.67
33795;BME280;51430;52.242;21.118;2023-03-01T23:58:16;101220.95;;;1.30;91.54
